Pagrindinis puslapis
METAR-TAF:

METAR-TAF

Oro uostai :

Marianhamina, Suomija

platuma: 60-07N, ilguma: 019-54E, Aukštis: 6 m

Dabartinis oras

Ataskaita buvo paskelbta 34 minutes, ne 01:20 UTC
Vėjas 3 kt iš Šiaurės
Temperatūra 0°C
Drėgmė 93%
Slėgis 1029 hPa
Matomumas 10 km arba daugiau
Apsiniaukę ne aukštis 3100 ft

METAR: EFMA 290120Z AUTO 36003KT 9999 OVC031 00/M01 Q1029

Laikas: 03:54 (01:54 UTC)

Prognozė

Ataskaita buvo paskelbta 2 valandos ir 23 minutes, ne 23:31 UTC
Prognozė galioja nuo 29 metu 00 UTC su 29 metu 09 UTC
Vėjas 4 kt iš Šiaurės
Matomumas 10 km arba daugiau
Su prošvaistėmis ne aukštis 3000 ft

TAF: EFMA 282331Z 2900/2909 36004KT 9999 BKN030

Orai ataskaitas ir orų prognozės (METAR, TAF).

turimą stotys yra geltonos ir raudonos taškus žemėlapyje.

Perkelti pele per norėdami pamatyti stoties vardą.

Tada spustelėkite, norėdami matyti oro stebėjimo ir prognozės.

Norėdami pakeisti žemėlapį: spustelėkite ant žalios mygtukų su juodo kryžiaus žemyn,; žalią mygtuką su brūkšneliu, jei norite nutolinti; arba žalių rodyklių gretimoms žemėlapius.


METAR-TAF: